Time;durP1;ratioP1;P1;durP2;ratioP2;P2;SDS_P1;SDS_P2;PMS_P1;PMS_P2;Temp;Humidity;BMP_temperature;BMP_pressure;BME280_temperature;BME280_humidity;BME280_pressure;Samples;Min_cycle;Max_cycle;Signal;HPM_P1;HPM_P2
2023/09/18 00:00:35;;;;;;;7.63;5.50;;;;;;;20.74;95.09;97548.31;5064099;23;21139;-91
2023/09/18 00:02:40;;;;;;;6.10;5.50;;;;;;;20.73;94.55;97546.66;5088722;23;20576;-91
2023/09/18 00:04:44;;;;;;;7.50;5.70;;;;;;;20.72;94.06;97545.03;5065819;23;20613;-91
2023/09/18 00:06:47;;;;;;;7.03;6.00;;;;;;;20.71;95.72;97546.03;5066448;23;20581;-91
2023/09/18 00:08:51;;;;;;;6.17;5.50;;;;;;;20.69;94.73;97556.00;5091941;23;20583;-91
2023/09/18 00:10:54;;;;;;;6.70;5.53;;;;;;;20.68;95.73;97540.28;5065233;23;20627;-91
2023/09/18 00:12:58;;;;;;;6.33;5.40;;;;;;;20.68;94.49;97549.03;5066026;23;20579;-91
2023/09/18 00:15:01;;;;;;;7.20;6.20;;;;;;;20.67;94.74;97547.38;5090609;23;20586;-91
2023/09/18 00:17:04;;;;;;;10.17;6.07;;;;;;;20.68;94.89;97546.38;5065693;23;20630;-91
2023/09/18 00:19:10;;;;;;;8.97;5.27;;;;;;;20.67;95.95;97549.19;5088972;23;21028;-91
2023/09/18 00:21:14;;;;;;;6.27;5.30;;;;;;;20.67;95.48;97539.44;5089441;23;20615;-91
2023/09/18 00:23:17;;;;;;;9.03;5.83;;;;;;;20.63;95.70;97540.78;5089731;23;20634;-91
2023/09/18 00:25:21;;;;;;;7.50;6.07;;;;;;;20.63;96.15;97551.38;5066168;23;20563;-91
2023/09/18 00:27:24;;;;;;;6.57;5.67;;;;;;;20.63;96.44;97546.06;5092072;23;20565;-91
2023/09/18 00:29:27;;;;;;;6.80;5.77;;;;;;;20.62;94.72;97544.41;5089932;23;20603;-90
2023/09/18 00:31:30;;;;;;;7.60;5.90;;;;;;;20.63;96.33;97540.78;5064828;23;20656;-91
2023/09/18 00:33:34;;;;;;;7.30;5.20;;;;;;;20.60;95.59;97535.03;5090548;23;20860;-91
2023/09/18 00:35:38;;;;;;;6.70;5.43;;;;;;;20.56;96.52;97533.72;5087983;23;20576;-91
2023/09/18 00:37:41;;;;;;;6.73;5.03;;;;;;;20.54;96.08;97536.56;5089826;23;20918;-91
2023/09/18 00:39:45;;;;;;;10.23;6.00;;;;;;;20.54;95.07;97533.91;5091375;23;20594;-90
2023/09/18 00:41:53;;;;;;;6.60;5.23;;;;;;;20.51;95.30;97518.34;5064945;23;20675;-90
2023/09/18 00:43:57;;;;;;;7.00;5.93;;;;;;;20.51;96.08;97515.72;5065787;23;20935;-91
2023/09/18 00:46:00;;;;;;;10.00;5.77;;;;;;;20.51;96.76;97515.72;5089627;23;20591;-91
2023/09/18 00:48:04;;;;;;;6.30;5.40;;;;;;;20.50;95.32;97500.00;5089774;23;20599;-91
2023/09/18 00:50:09;;;;;;;7.27;5.47;;;;;;;20.49;95.84;97506.28;5065628;23;20584;-91
2023/09/18 00:52:14;;;;;;;7.03;5.30;;;;;;;20.46;96.68;97502.19;5088096;23;20604;-90
2023/09/18 00:54:19;;;;;;;6.77;5.60;;;;;;;20.44;95.65;97498.88;5065668;23;20660;-91
2023/09/18 00:56:23;;;;;;;6.70;5.70;;;;;;;20.43;95.96;97507.84;5065174;23;20592;-91
2023/09/18 00:58:26;;;;;;;8.70;5.60;;;;;;;20.44;95.89;97498.06;5065537;23;20584;-91
2023/09/18 01:00:29;;;;;;;5.80;5.20;;;;;;;20.43;96.16;97486.66;5089886;23;20610;-91
2023/09/18 01:02:32;;;;;;;7.73;6.00;;;;;;;20.44;96.54;97498.06;5089567;23;20633;-90
2023/09/18 01:04:35;;;;;;;6.03;5.43;;;;;;;20.41;95.33;97493.94;5064854;23;20963;-90
2023/09/18 01:06:38;;;;;;;6.20;5.17;;;;;;;20.37;96.90;97490.00;5090209;23;20582;-91
2023/09/18 01:08:43;;;;;;;6.43;5.40;;;;;;;20.35;97.53;97488.53;5090485;23;20633;-91
2023/09/18 01:10:50;;;;;;;7.30;6.00;;;;;;;20.35;96.48;97494.66;5090246;23;20583;-91
2023/09/18 01:12:57;;;;;;;8.80;5.83;;;;;;;20.37;96.05;97494.47;5065642;23;20965;-91
2023/09/18 01:15:04;;;;;;;6.13;5.53;;;;;;;20.37;96.36;97494.47;5089844;23;21101;-91
2023/09/18 01:17:10;;;;;;;6.73;5.33;;;;;;;20.39;96.10;97495.13;5065719;23;20580;-91
2023/09/18 01:19:14;;;;;;;7.40;5.87;;;;;;;20.39;96.62;97490.66;5065800;23;20677;-91
2023/09/18 01:21:17;;;;;;;6.93;5.40;;;;;;;20.39;97.92;97480.03;5091014;23;20652;-91
2023/09/18 01:23:22;;;;;;;7.43;5.60;;;;;;;20.38;97.13;97478.38;5064944;23;20580;-91
2023/09/18 01:25:25;;;;;;;8.53;5.67;;;;;;;20.38;97.40;97466.97;5064981;23;20577;-91
2023/09/18 01:27:27;;;;;;;7.67;5.80;;;;;;;20.41;96.28;97474.56;5065166;23;20640;-91
2023/09/18 01:29:31;;;;;;;8.47;6.13;;;;;;;20.41;97.30;97474.56;5066159;23;20584;-91
2023/09/18 01:31:34;;;;;;;7.20;6.20;;;;;;;20.39;96.93;97474.75;5089385;23;20613;-91
2023/09/18 01:33:38;;;;;;;6.47;5.87;;;;;;;20.43;96.26;97485.78;5089408;23;20588;-91
2023/09/18 01:35:42;;;;;;;8.37;6.20;;;;;;;20.44;96.71;97482.97;5089994;23;20583;-90
2023/09/18 01:37:46;;;;;;;9.13;6.13;;;;;;;20.45;96.30;97476.69;5064974;23;20580;-91
2023/09/18 01:39:52;;;;;;;6.60;5.93;;;;;;;20.44;96.15;97476.84;5088986;23;20582;-91
2023/09/18 01:41:55;;;;;;;7.27;6.20;;;;;;;20.45;97.58;97479.31;5088638;23;20978;-91
2023/09/18 01:43:58;;;;;;;7.60;5.93;;;;;;;20.47;98.03;97474.66;5089509;23;21157;-91
2023/09/18 01:46:03;;;;;;;6.73;6.10;;;;;;;20.48;97.01;97473.66;5064846;23;20592;-91
2023/09/18 01:48:07;;;;;;;6.73;6.03;;;;;;;20.48;97.39;97478.16;5090221;23;21153;-91
2023/09/18 01:50:11;;;;;;;9.20;6.47;;;;;;;20.49;97.81;97480.63;5090072;23;20630;-91
2023/09/18 01:52:14;;;;;;;8.00;6.63;;;;;;;20.50;97.98;97482.25;5065007;23;20609;-91
2023/09/18 01:54:17;;;;;;;7.67;5.97;;;;;;;20.51;97.76;97486.56;5063937;23;20594;-91
2023/09/18 01:56:21;;;;;;;6.20;5.60;;;;;;;20.52;97.59;97490.88;5064110;23;20589;-91
2023/09/18 01:58:25;;;;;;;7.50;5.80;;;;;;;20.54;96.68;97486.19;5088944;23;20908;-91
2023/09/18 02:00:28;;;;;;;6.43;5.70;;;;;;;20.56;97.34;97496.63;5065297;23;20588;-91
2023/09/18 02:02:33;;;;;;;7.73;6.00;;;;;;;20.59;97.66;97491.78;5065494;23;20589;-91
2023/09/18 02:04:45;;;;;;;9.50;5.23;;;;;;;20.60;96.64;97490.78;5064987;23;20614;-91
2023/09/18 02:07:08;;;;;;;6.53;5.90;;;;;;;20.61;98.05;97515.44;5064408;23;20848;-91
2023/09/18 02:09:10;;;;;;;6.50;5.23;;;;;;;20.59;98.60;97539.47;5089814;23;20581;-90
2023/09/18 02:11:14;;;;;;;5.77;5.27;;;;;;;20.60;97.47;97578.25;5064914;23;21081;-91
2023/09/18 02:13:18;;;;;;;9.60;5.97;;;;;;;20.59;98.04;97613.69;5065024;23;21123;-91
2023/09/18 02:15:22;;;;;;;7.33;5.80;;;;;;;20.65;96.16;97578.53;5063841;23;20580;-91
2023/09/18 02:17:25;;;;;;;7.60;5.90;;;;;;;20.59;97.39;97555.38;5063901;23;20579;-91
2023/09/18 02:19:28;;;;;;;7.07;5.27;;;;;;;20.64;97.29;97570.75;5064501;23;20667;-90
2023/09/18 02:21:31;;;;;;;8.20;6.03;;;;;;;20.64;95.82;97571.59;5063841;23;20627;-91
2023/09/18 02:23:35;;;;;;;6.73;6.03;;;;;;;20.66;96.72;97579.34;5064834;23;20995;-91
2023/09/18 02:25:40;;;;;;;8.30;5.80;;;;;;;20.62;96.28;97552.38;5087869;23;20604;-90
2023/09/18 02:27:43;;;;;;;8.37;6.70;;;;;;;20.58;98.34;97551.09;5064129;23;20703;-91
2023/09/18 02:29:49;;;;;;;7.83;5.73;;;;;;;20.59;98.36;97559.88;5088641;23;20676;-90
2023/09/18 02:31:53;;;;;;;8.17;6.17;;;;;;;20.58;97.72;97540.50;5063504;23;21244;-91
2023/09/18 02:33:56;;;;;;;6.67;6.00;;;;;;;20.58;97.69;97526.41;5063787;23;20593;-91
2023/09/18 02:36:00;;;;;;;10.63;6.00;;;;;;;20.58;99.03;97506.03;5088625;23;20577;-90
2023/09/18 02:38:03;;;;;;;6.10;5.50;;;;;;;20.53;100.00;97450.09;5065069;23;20643;-92
2023/09/18 02:40:08;;;;;;;6.33;5.63;;;;;;;20.49;100.00;97422.31;5064915;23;20587;-92
2023/09/18 02:42:12;;;;;;;7.43;5.90;;;;;;;20.55;100.00;97426.06;5065127;23;20591;-92
2023/09/18 02:44:15;;;;;;;6.33;4.77;;;;;;;20.58;99.54;97436.28;5090036;23;20686;-92
2023/09/18 02:46:20;;;;;;;7.10;5.00;;;;;;;20.61;100.00;97427.97;5089411;23;20657;-91
2023/09/18 02:48:23;;;;;;;5.30;4.53;;;;;;;20.69;100.00;97444.66;5063614;23;21118;-91
2023/09/18 02:50:27;;;;;;;8.90;4.97;;;;;;;20.77;99.95;97478.22;5089219;23;20591;-91
2023/09/18 02:52:30;;;;;;;6.50;5.10;;;;;;;20.84;100.00;97464.03;5086972;23;20663;-91
2023/09/18 02:54:34;;;;;;;5.90;4.73;;;;;;;20.89;100.00;97466.97;5087657;23;21110;-91
2023/09/18 02:56:37;;;;;;;6.47;5.30;;;;;;;20.89;100.00;97453.69;5063902;23;20588;-91
2023/09/18 02:58:42;;;;;;;6.17;5.30;;;;;;;20.94;100.00;97453.97;5088599;23;20650;-91
2023/09/18 03:00:47;;;;;;;6.50;4.90;;;;;;;20.93;100.00;97468.25;5087478;23;21011;-91
2023/09/18 03:02:52;;;;;;;7.13;5.07;;;;;;;20.86;100.00;97468.13;5087780;23;21102;-91
2023/09/18 03:04:55;;;;;;;6.93;5.20;;;;;;;20.82;100.00;97477.47;5063372;23;20719;-90
2023/09/18 03:06:59;;;;;;;10.70;5.87;;;;;;;20.81;100.00;97477.66;5088664;23;20611;-91
2023/09/18 03:09:03;;;;;;;5.43;4.87;;;;;;;20.75;100.00;97489.00;5061681;23;20601;-92
2023/09/18 03:11:13;;;;;;;7.47;5.60;;;;;;;20.70;100.00;97509.91;5090710;23;20591;-96
2023/09/18 03:13:16;;;;;;;8.20;5.53;;;;;;;20.66;100.00;97513.06;5065992;23;20703;-94
2023/09/18 03:15:20;;;;;;;9.23;5.40;;;;;;;20.64;100.00;97525.69;5066577;23;20595;-94
2023/09/18 03:17:23;;;;;;;9.83;6.20;;;;;;;20.61;100.00;97526.03;5067302;23;20645;-96
2023/09/18 03:19:30;;;;;;;8.20;5.87;;;;;;;20.59;100.00;97510.31;5066169;23;20640;-96
2023/09/18 03:21:35;;;;;;;7.90;5.70;;;;;;;20.64;99.79;97494.72;5070334;23;21139;-96
2023/09/18 03:23:42;;;;;;;8.10;5.70;;;;;;;20.61;100.00;97488.94;5044234;23;20618;-96
2023/09/18 03:25:45;;;;;;;8.90;5.70;;;;;;;20.60;100.00;97489.97;5066341;23;20624;-94
2023/09/18 03:27:57;;;;;;;6.77;5.40;;;;;;;20.63;100.00;97482.47;5068496;23;21140;-92
2023/09/18 03:30:07;;;;;;;7.93;5.53;;;;;;;20.63;100.00;97479.00;5063342;23;20647;-92
2023/09/18 03:32:12;;;;;;;6.40;5.33;;;;;;;20.67;100.00;97498.81;5063238;23;20975;-92
2023/09/18 03:34:16;;;;;;;6.50;5.60;;;;;;;20.64;100.00;97488.56;5065990;23;20580;-91
2023/09/18 03:36:23;;;;;;;7.30;5.30;;;;;;;20.59;100.00;97486.47;5065946;23;20588;-91
2023/09/18 03:38:27;;;;;;;5.93;5.33;;;;;;;20.60;100.00;97485.47;5067081;23;20658;-91
2023/09/18 03:40:30;;;;;;;5.77;5.13;;;;;;;20.61;99.93;97489.78;5091230;23;20954;-91
2023/09/18 03:42:34;;;;;;;7.50;5.50;;;;;;;20.61;100.00;97488.94;5066051;23;20586;-91
2023/09/18 03:44:37;;;;;;;6.03;4.67;;;;;;;20.61;100.00;97483.63;5091850;23;20631;-91
2023/09/18 03:46:41;;;;;;;7.07;5.33;;;;;;;20.55;100.00;97473.75;5067347;23;20916;-91
2023/09/18 03:48:46;;;;;;;6.57;5.67;;;;;;;20.43;100.00;97470.75;5092012;23;21206;-91
2023/09/18 03:50:49;;;;;;;7.53;6.50;;;;;;;20.39;100.00;97485.34;5064795;23;20580;-91
2023/09/18 03:52:54;;;;;;;20.33;17.90;;;;;;;20.37;100.00;97500.59;5066070;23;20628;-91
2023/09/18 03:54:57;;;;;;;6.40;5.47;;;;;;;20.30;100.00;97512.09;5065180;23;20592;-91
2023/09/18 03:57:00;;;;;;;6.00;5.40;;;;;;;20.28;100.00;97513.28;5089635;23;20589;-91
2023/09/18 03:59:04;;;;;;;8.30;5.40;;;;;;;20.29;100.00;97512.28;5066700;23;20587;-91
2023/09/18 04:01:08;;;;;;;6.87;5.53;;;;;;;20.27;100.00;97511.63;5066073;23;20786;-91
2023/09/18 04:03:11;;;;;;;5.83;4.80;;;;;;;20.27;100.00;97522.25;5067107;23;20590;-91
2023/09/18 04:05:15;;;;;;;7.00;6.23;;;;;;;20.29;100.00;97547.53;5091101;23;20698;-91
2023/09/18 04:07:19;;;;;;;8.20;5.50;;;;;;;20.32;100.00;97563.88;5090758;23;20586;-91
2023/09/18 04:09:23;;;;;;;6.80;5.37;;;;;;;20.36;100.00;97574.97;5066030;23;20643;-91
2023/09/18 04:11:27;;;;;;;7.80;5.20;;;;;;;20.35;100.00;97584.72;5090158;23;20575;-91
2023/09/18 04:13:30;;;;;;;7.77;6.00;;;;;;;20.36;100.00;97596.16;5066329;23;20651;-91
2023/09/18 04:15:35;;;;;;;8.33;6.23;;;;;;;20.35;100.00;97618.34;5090218;23;20575;-91
2023/09/18 04:17:41;;;;;;;7.90;5.60;;;;;;;20.35;100.00;97627.13;5090758;23;20571;-91
2023/09/18 04:19:44;;;;;;;6.27;5.67;;;;;;;20.38;100.00;97626.78;5064442;23;20585;-91
2023/09/18 04:21:48;;;;;;;7.00;6.30;;;;;;;20.41;100.00;97630.91;5063032;23;20951;-91
2023/09/18 04:23:57;;;;;;;10.13;6.50;;;;;;;20.39;100.00;97617.81;5091937;23;20556;-90
2023/09/18 04:26:01;;;;;;;9.53;5.90;;;;;;;20.37;100.00;97603.94;5089640;23;20574;-91
2023/09/18 04:28:05;;;;;;;7.80;6.07;;;;;;;20.33;100.00;97597.34;5065260;23;21182;-91
2023/09/18 04:30:10;;;;;;;10.37;6.20;;;;;;;20.30;100.00;97586.28;5090284;23;20580;-91
2023/09/18 04:32:13;;;;;;;7.03;6.00;;;;;;;20.29;100.00;97599.69;5064885;23;20583;-91
2023/09/18 04:34:15;;;;;;;6.57;5.50;;;;;;;20.32;100.00;97606.28;5089513;23;20611;-91
2023/09/18 04:36:21;;;;;;;5.57;5.07;;;;;;;20.35;100.00;97616.53;5089670;23;20614;-91
2023/09/18 04:38:24;;;;;;;6.70;5.67;;;;;;;20.39;100.00;97601.13;5064842;23;20591;-91
2023/09/18 04:40:31;;;;;;;7.40;5.87;;;;;;;20.41;100.00;97605.22;5065653;23;21214;-90
2023/09/18 04:42:36;;;;;;;6.37;5.47;;;;;;;20.39;100.00;97583.38;5089611;23;20889;-91
2023/09/18 04:44:39;;;;;;;11.20;6.13;;;;;;;20.41;100.00;97569.97;5064739;23;21130;-91
2023/09/18 04:46:43;;;;;;;7.87;5.23;;;;;;;20.39;100.00;97572.78;5089658;23;20619;-91
2023/09/18 04:48:47;;;;;;;6.20;5.07;;;;;;;20.39;100.00;97564.84;5090360;23;21120;-91
2023/09/18 04:50:51;;;;;;;8.03;5.87;;;;;;;20.39;100.00;97564.03;5091360;23;20565;-91
2023/09/18 04:52:57;;;;;;;5.97;5.13;;;;;;;20.41;100.00;97549.56;5089879;23;20591;-91
2023/09/18 04:55:01;;;;;;;6.33;5.73;;;;;;;20.42;100.00;97540.63;5088988;23;21130;-91
2023/09/18 04:57:05;;;;;;;7.23;5.53;;;;;;;20.41;100.00;97520.44;5065557;23;20619;-91
2023/09/18 04:59:10;;;;;;;8.60;5.70;;;;;;;20.46;100.00;97498.69;5090021;23;21124;-92
2023/09/18 05:01:13;;;;;;;7.50;5.57;;;;;;;20.50;100.00;97497.34;5089232;23;20583;-92
2023/09/18 05:03:17;;;;;;;7.50;5.43;;;;;;;20.47;100.00;97479.97;5065522;23;20691;-91
2023/09/18 05:05:20;;;;;;;6.30;4.73;;;;;;;20.41;100.00;97470.06;5088793;23;21232;-91
2023/09/18 05:07:24;;;;;;;6.87;5.03;;;;;;;20.39;100.00;97458.03;5089663;23;20572;-91
2023/09/18 05:09:27;;;;;;;7.33;5.27;;;;;;;20.41;100.00;97451.53;5089343;23;20900;-91
2023/09/18 05:11:31;;;;;;;6.90;5.57;;;;;;;20.43;100.00;97470.75;5064933;23;20586;-90
2023/09/18 05:13:33;;;;;;;10.23;4.93;;;;;;;20.47;100.00;97495.03;5089623;23;20596;-92
2023/09/18 05:15:38;;;;;;;7.10;5.50;;;;;;;20.52;100.00;97497.97;5088468;23;21179;-91
2023/09/18 05:17:43;;;;;;;8.93;5.30;;;;;;;20.56;100.00;97496.63;5089999;23;20633;-91
2023/09/18 05:19:46;;;;;;;7.63;4.93;;;;;;;20.60;100.00;97498.72;5065394;23;20578;-91
2023/09/18 05:21:50;;;;;;;6.50;4.83;;;;;;;20.61;100.00;97487.13;5089020;23;20673;-91
2023/09/18 05:23:54;;;;;;;10.00;5.67;;;;;;;20.63;100.00;97498.38;5089452;23;20611;-91
2023/09/18 05:25:57;;;;;;;6.27;4.63;;;;;;;20.69;100.00;97513.59;5113815;23;20576;-91
2023/09/18 05:28:00;;;;;;;7.30;5.07;;;;;;;20.71;100.00;97519.53;5089804;23;20565;-90
2023/09/18 05:30:05;;;;;;;6.40;5.27;;;;;;;20.73;100.00;97520.16;5088414;23;20600;-91
2023/09/18 05:32:09;;;;;;;4.90;4.30;;;;;;;20.77;100.00;97521.44;5064683;23;20583;-91
2023/09/18 05:34:12;;;;;;;9.40;4.17;;;;;;;20.81;100.00;97520.09;5064197;23;20674;-92
2023/09/18 05:36:16;;;;;;;11.07;4.97;;;;;;;20.82;100.00;97514.59;5089282;23;20566;-91
2023/09/18 05:38:19;;;;;;;7.07;5.43;;;;;;;20.80;100.00;97515.78;5064892;23;20624;-91
2023/09/18 05:40:22;;;;;;;6.53;4.77;;;;;;;20.77;100.00;97507.38;5065488;23;20624;-91
2023/09/18 05:42:24;;;;;;;4.90;4.40;;;;;;;20.76;100.00;97503.88;5089603;23;20620;-91
2023/09/18 05:44:27;;;;;;;8.10;4.80;;;;;;;20.76;100.00;97492.47;5089563;23;20654;-91
2023/09/18 05:46:31;;;;;;;8.17;4.50;;;;;;;20.76;100.00;97503.88;5091488;23;20679;-90
2023/09/18 05:48:36;;;;;;;6.10;4.57;;;;;;;20.77;100.00;97518.78;5065669;23;20613;-91
2023/09/18 05:50:41;;;;;;;7.93;4.87;;;;;;;20.81;100.00;97533.34;5064489;23;20627;-91
2023/09/18 05:52:45;;;;;;;7.80;5.33;;;;;;;20.85;100.00;97537.25;5089079;23;21031;-90
2023/09/18 05:54:48;;;;;;;6.37;5.00;;;;;;;20.89;100.00;97541.22;5089198;23;20931;-90
2023/09/18 05:56:51;;;;;;;9.07;4.50;;;;;;;20.93;100.00;97538.00;5090905;23;20570;-90
2023/09/18 05:58:55;;;;;;;6.70;3.93;;;;;;;20.99;100.00;97541.78;5089806;23;20564;-91
2023/09/18 06:01:00;;;;;;;5.80;4.20;;;;;;;21.04;100.00;97539.41;5064715;23;20613;-92
2023/09/18 06:03:05;;;;;;;5.70;3.87;;;;;;;21.05;100.00;97555.13;5090184;23;20581;-91
2023/09/18 06:05:11;;;;;;;5.80;3.80;;;;;;;21.09;100.00;97552.94;5064595;23;20653;-91
2023/09/18 06:07:15;;;;;;;6.77;4.50;;;;;;;21.11;100.00;97546.44;5064625;23;20634;-92
2023/09/18 06:09:18;;;;;;;8.00;4.40;;;;;;;21.13;100.00;97535.66;5089732;23;20619;-91
2023/09/18 06:11:21;;;;;;;6.40;4.60;;;;;;;21.14;100.00;97537.28;5090888;23;20620;-92
2023/09/18 06:13:25;;;;;;;8.23;5.27;;;;;;;21.09;100.00;97545.78;5091599;23;20964;-91
2023/09/18 06:15:28;;;;;;;5.73;4.20;;;;;;;21.12;100.00;97549.91;5064981;23;20689;-91
2023/09/18 06:17:31;;;;;;;7.73;4.13;;;;;;;21.15;100.00;97550.34;5064789;23;20618;-91
2023/09/18 06:19:35;;;;;;;8.80;5.10;;;;;;;21.20;100.00;97548.00;5087417;23;20612;-91
2023/09/18 06:21:39;;;;;;;8.00;4.20;;;;;;;21.25;100.00;97540.31;5089286;23;21111;-91
2023/09/18 06:23:42;;;;;;;6.83;3.80;;;;;;;21.29;100.00;97536.28;5088481;23;20637;-93
2023/09/18 06:25:46;;;;;;;9.13;4.57;;;;;;;21.32;100.00;97541.22;5089237;23;20944;-92
2023/09/18 06:27:49;;;;;;;6.10;3.97;;;;;;;21.36;99.89;97527.41;5089314;23;20576;-93
2023/09/18 06:29:52;;;;;;;7.77;4.60;;;;;;;21.37;100.00;97529.03;5065733;23;20640;-93
2023/09/18 06:31:56;;;;;;;8.00;4.00;;;;;;;21.42;100.00;97531.97;5065800;23;20633;-93
2023/09/18 06:33:59;;;;;;;7.20;4.60;;;;;;;21.46;100.00;97530.59;5066187;23;20577;-93
2023/09/18 06:36:03;;;;;;;9.10;4.67;;;;;;;21.52;99.91;97532.53;5090044;23;21160;-92
2023/09/18 06:38:06;;;;;;;5.13;4.10;;;;;;;21.55;99.56;97520.72;5064455;23;20590;-92
2023/09/18 06:40:11;;;;;;;7.80;4.40;;;;;;;21.57;99.51;97524.81;5090406;23;20645;-94
2023/09/18 06:42:15;;;;;;;6.53;3.70;;;;;;;21.60;98.95;97527.09;5090077;23;20690;-93
2023/09/18 06:44:19;;;;;;;7.77;3.80;;;;;;;21.65;98.41;97529.19;5063520;23;20588;-91
2023/09/18 06:46:22;;;;;;;6.30;4.17;;;;;;;21.65;98.69;97540.66;5064932;23;20586;-91
2023/09/18 06:48:26;;;;;;;8.03;4.43;;;;;;;21.71;98.10;97549.69;5091538;23;20579;-91
2023/09/18 06:50:30;;;;;;;7.53;4.17;;;;;;;21.73;98.76;97556.47;5089977;23;20583;-91
2023/09/18 06:52:34;;;;;;;5.73;4.40;;;;;;;21.78;98.96;97557.56;5090171;23;20588;-91
2023/09/18 06:54:38;;;;;;;6.73;3.63;;;;;;;21.83;97.89;97562.28;5065951;23;20610;-91
2023/09/18 06:56:44;;;;;;;6.17;2.90;;;;;;;21.84;96.34;97554.13;5088557;23;20592;-92
2023/09/18 06:58:51;;;;;;;5.87;3.70;;;;;;;21.88;96.32;97563.38;5065633;23;20594;-91
2023/09/18 07:00:54;;;;;;;6.30;3.50;;;;;;;21.90;95.96;97574.63;5089704;23;20978;-92
2023/09/18 07:02:58;;;;;;;10.00;4.20;;;;;;;21.94;95.85;97569.81;5065551;23;20593;-91
2023/09/18 07:05:01;;;;;;;5.27;3.97;;;;;;;21.97;97.10;97577.41;5065512;23;20656;-91
2023/09/18 07:07:05;;;;;;;7.10;4.60;;;;;;;21.99;98.22;97576.19;5064786;23;20641;-91
2023/09/18 07:09:11;;;;;;;7.67;5.13;;;;;;;22.02;99.25;97580.31;5065819;23;20590;-91
2023/09/18 07:11:17;;;;;;;7.80;4.10;;;;;;;22.01;99.35;97573.34;5066734;23;20637;-92
2023/09/18 07:13:20;;;;;;;10.00;4.67;;;;;;;22.05;99.73;97579.94;5091035;23;20577;-91
2023/09/18 07:15:23;;;;;;;9.40;4.97;;;;;;;22.07;99.86;97583.22;5087611;23;20612;-91
2023/09/18 07:17:26;;;;;;;8.90;4.60;;;;;;;22.08;100.00;97580.38;5066972;23;20629;-91
2023/09/18 07:19:30;;;;;;;8.30;4.43;;;;;;;22.08;99.72;97584.88;5092379;23;20585;-91
2023/09/18 07:21:34;;;;;;;6.40;4.13;;;;;;;22.10;99.87;97582.84;5091913;23;21137;-91
2023/09/18 07:23:37;;;;;;;7.10;4.20;;;;;;;22.14;99.77;97584.13;5092131;23;21203;-92
2023/09/18 07:25:43;;;;;;;12.80;4.90;;;;;;;22.19;100.00;97584.38;5091202;23;20641;-91
2023/09/18 07:27:48;;;;;;;6.50;4.17;;;;;;;22.27;100.00;97595.75;5067811;23;20584;-93
2023/09/18 07:29:52;;;;;;;4.47;3.87;;;;;;;22.33;99.91;97598.47;5068681;23;20592;-93
2023/09/18 07:31:56;;;;;;;5.57;3.73;;;;;;;22.42;99.80;97591.19;5068704;23;20900;-93
2023/09/18 07:34:00;;;;;;;6.73;4.53;;;;;;;22.50;99.99;97604.34;5044565;23;20988;-93
2023/09/18 07:36:04;;;;;;;7.77;3.53;;;;;;;22.57;100.00;97598.09;5094668;23;20672;-92
2023/09/18 07:38:08;;;;;;;5.40;3.37;;;;;;;22.65;99.44;97600.59;5067476;23;20628;-93
2023/09/18 07:40:12;;;;;;;10.27;4.40;;;;;;;22.65;100.00;97595.28;5091665;23;21279;-92
2023/09/18 07:42:16;;;;;;;14.63;5.43;;;;;;;22.65;100.00;97600.59;5068352;23;20601;-93
2023/09/18 07:44:22;;;;;;;7.80;4.60;;;;;;;22.59;100.00;97601.38;5092899;23;21120;-92
2023/09/18 07:46:26;;;;;;;8.03;5.10;;;;;;;22.59;100.00;97593.41;5092621;23;20569;-92
2023/09/18 07:48:29;;;;;;;10.40;5.33;;;;;;;22.60;100.00;97591.56;5092747;23;20607;-92
2023/09/18 07:50:33;;;;;;;11.53;5.33;;;;;;;22.69;100.00;97609.03;5067788;23;20993;-92
2023/09/18 07:52:37;;;;;;;10.60;4.90;;;;;;;22.74;100.00;97621.56;5092190;23;21148;-92
2023/09/18 07:54:40;;;;;;;8.40;4.80;;;;;;;22.80;100.00;97627.97;5067773;23;20592;-93
2023/09/18 07:56:44;;;;;;;7.70;4.83;;;;;;;22.83;100.00;97641.69;5091596;23;21242;-92
2023/09/18 07:58:47;;;;;;;7.43;5.27;;;;;;;22.87;100.00;97642.97;5066515;23;20565;-92
2023/09/18 08:00:53;;;;;;;7.53;5.37;;;;;;;22.91;100.00;97651.38;5066581;23;20680;-93
2023/09/18 08:03:00;;;;;;;8.40;4.43;;;;;;;22.95;100.00;97658.00;5091609;23;20663;-92
2023/09/18 08:05:04;;;;;;;6.33;4.40;;;;;;;23.04;100.00;97654.19;5093257;23;21000;-92
2023/09/18 08:07:07;;;;;;;9.20;5.17;;;;;;;23.12;100.00;97648.72;5067655;23;20584;-92
2023/09/18 08:09:13;;;;;;;7.67;4.70;;;;;;;23.25;99.96;97652.31;5090831;23;20576;-92
2023/09/18 08:11:16;;;;;;;5.10;4.30;;;;;;;23.42;99.45;97649.16;5066372;23;20635;-92
2023/09/18 08:13:21;;;;;;;5.70;4.30;;;;;;;23.62;98.84;97650.13;5091632;23;20953;-93
2023/09/18 08:15:25;;;;;;;6.90;4.07;;;;;;;23.80;98.31;97645.09;5067377;23;20624;-93
2023/09/18 08:17:30;;;;;;;5.90;3.43;;;;;;;23.89;95.86;97642.09;5067148;23;20579;-93
2023/09/18 08:19:35;;;;;;;5.63;3.23;;;;;;;23.93;95.80;97637.19;5091443;23;20657;-94
2023/09/18 08:21:38;;;;;;;6.63;2.93;;;;;;;23.96;96.13;97642.94;5066360;23;20615;-92
2023/09/18 08:23:42;;;;;;;3.40;1.93;;;;;;;24.03;93.48;97642.97;5065991;23;20994;-93
2023/09/18 08:25:46;;;;;;;8.70;2.40;;;;;;;24.11;94.32;97635.63;5064040;23;20589;-90
2023/09/18 08:27:49;;;;;;;6.73;2.57;;;;;;;24.22;92.79;97630.53;5065400;23;20640;-90
2023/09/18 08:29:52;;;;;;;10.10;4.40;;;;;;;24.38;92.36;97640.06;5088997;23;21146;-90
2023/09/18 08:31:54;;;;;;;7.63;3.90;;;;;;;24.45;91.16;97641.72;5090154;23;20582;-90
2023/09/18 08:33:59;;;;;;;4.50;2.47;;;;;;;24.56;90.63;97648.31;5065134;23;21051;-90
2023/09/18 08:36:02;;;;;;;6.40;2.37;;;;;;;24.63;89.39;97654.47;5090291;23;20617;-90
2023/09/18 08:38:05;;;;;;;7.07;2.03;;;;;;;24.70;89.96;97656.13;5064998;23;20900;-90
2023/09/18 08:40:11;;;;;;;4.70;1.77;;;;;;;24.82;88.56;97663.34;5089643;23;20664;-91
2023/09/18 08:42:15;;;;;;;6.93;2.07;;;;;;;24.80;88.70;97673.38;5064916;23;20581;-90
2023/09/18 08:44:19;;;;;;;6.10;2.30;;;;;;;24.74;87.97;97678.72;5090431;23;20629;-89
2023/09/18 08:46:23;;;;;;;3.97;1.87;;;;;;;24.50;84.73;97681.13;5089592;23;20603;-90
2023/09/18 08:48:28;;;;;;;5.30;2.00;;;;;;;24.27;87.34;97684.09;5065629;23;20959;-90
2023/09/18 08:50:34;;;;;;;5.70;2.00;;;;;;;24.14;86.81;97672.53;5092086;23;20590;-90
2023/09/18 08:52:37;;;;;;;4.00;2.27;;;;;;;24.10;86.27;97679.31;5089664;23;20585;-89
2023/09/18 08:54:40;;;;;;;5.20;1.67;;;;;;;23.96;86.31;97676.75;5089208;23;20600;-90
2023/09/18 08:56:44;;;;;;;4.13;2.90;;;;;;;23.85;86.79;97674.66;5090885;23;20608;-89
2023/09/18 08:58:48;;;;;;;6.93;1.80;;;;;;;23.79;87.80;97675.44;5065202;23;20580;-89
2023/09/18 09:00:52;;;;;;;3.70;1.70;;;;;;;23.74;86.17;97664.56;5065353;23;21130;-90
2023/09/18 09:02:55;;;;;;;4.77;1.90;;;;;;;23.73;85.73;97674.38;5089612;23;21048;-88
2023/09/18 09:04:59;;;;;;;3.70;1.67;;;;;;;23.54;84.72;97676.06;5064725;23;20679;-88
2023/09/18 09:07:03;;;;;;;4.23;1.63;;;;;;;23.40;86.21;97677.00;5089167;23;20920;-89
2023/09/18 09:09:07;;;;;;;2.63;1.47;;;;;;;23.33;86.17;97687.63;5088309;23;20589;-90
2023/09/18 09:11:10;;;;;;;5.87;1.83;;;;;;;23.37;87.82;97682.72;5089637;23;20624;-89
2023/09/18 09:13:15;;;;;;;3.73;1.60;;;;;;;23.43;88.03;97688.09;5064252;23;21121;-89
2023/09/18 09:15:45;;;;;;;2.40;1.23;;;;;;;23.39;85.54;97692.13;5064799;23;20582;-88
2023/09/18 09:17:50;;;;;;;2.37;1.23;;;;;;;23.27;85.78;97683.06;5065375;23;20954;-89
2023/09/18 09:20:09;;;;;;;3.90;2.10;;;;;;;23.08;85.58;97698.03;5091376;23;20593;-89
2023/09/18 09:22:21;;;;;;;2.80;1.20;;;;;;;23.01;85.46;97682.00;5064460;23;20590;-89
2023/09/18 09:24:38;;;;;;;5.77;1.20;;;;;;;22.90;86.84;97698.47;5088523;23;20557;-90
2023/09/18 09:26:42;;;;;;;5.70;2.63;;;;;;;22.74;86.86;97714.66;5065023;23;20678;-89
2023/09/18 09:28:45;;;;;;;2.73;1.10;;;;;;;22.49;90.10;97711.72;5087970;23;20579;-89
2023/09/18 09:30:48;;;;;;;7.00;1.23;;;;;;;22.40;90.61;97723.47;5063283;23;20578;-89
2023/09/18 09:32:53;;;;;;;2.33;1.00;;;;;;;22.26;92.69;97733.13;5088903;23;21190;-89
2023/09/18 09:34:59;;;;;;;6.17;1.40;;;;;;;21.93;93.98;97724.88;5090081;23;20562;-89
2023/09/18 09:37:04;;;;;;;5.47;1.50;;;;;;;21.78;95.85;97724.03;5064097;23;20611;-89
2023/09/18 09:39:14;;;;;;;4.43;1.53;;;;;;;21.63;96.61;97717.91;5064654;23;20578;-89
2023/09/18 09:41:17;;;;;;;4.17;1.47;;;;;;;21.52;99.18;97712.22;5088622;23;21163;-90